sensor_id;sensor_type;location;lat;lon;timestamp;temperature;humidity
8332;DHT22;4203;48.144;14.118;2023-08-31T00:00:17;12.90;99.90
8332;DHT22;4203;48.144;14.118;2023-08-31T00:02:44;12.90;99.90
8332;DHT22;4203;48.144;14.118;2023-08-31T00:05:11;12.90;99.90
8332;DHT22;4203;48.144;14.118;2023-08-31T00:07:41;12.80;99.90
8332;DHT22;4203;48.144;14.118;2023-08-31T00:10:08;12.70;99.90
8332;DHT22;4203;48.144;14.118;2023-08-31T00:12:37;12.70;99.90
8332;DHT22;4203;48.144;14.118;2023-08-31T00:15:07;12.60;99.90
8332;DHT22;4203;48.144;14.118;2023-08-31T00:17:35;12.50;99.90
8332;DHT22;4203;48.144;14.118;2023-08-31T00:20:04;12.50;99.90
8332;DHT22;4203;48.144;14.118;2023-08-31T00:22:33;12.50;99.90
8332;DHT22;4203;48.144;14.118;2023-08-31T00:25:00;12.40;99.90
8332;DHT22;4203;48.144;14.118;2023-08-31T00:27:28;12.40;99.90
8332;DHT22;4203;48.144;14.118;2023-08-31T00:29:55;12.40;99.90
8332;DHT22;4203;48.144;14.118;2023-08-31T00:32:25;12.40;99.90
8332;DHT22;4203;48.144;14.118;2023-08-31T00:34:52;12.30;99.90
8332;DHT22;4203;48.144;14.118;2023-08-31T00:37:19;12.30;99.90
8332;DHT22;4203;48.144;14.118;2023-08-31T00:39:48;12.20;99.90
8332;DHT22;4203;48.144;14.118;2023-08-31T00:42:17;12.10;99.90
8332;DHT22;4203;48.144;14.118;2023-08-31T00:44:45;12.10;99.90
8332;DHT22;4203;48.144;14.118;2023-08-31T00:47:13;12.00;99.90
8332;DHT22;4203;48.144;14.118;2023-08-31T00:49:44;12.00;99.90
8332;DHT22;4203;48.144;14.118;2023-08-31T00:52:11;12.00;99.90
8332;DHT22;4203;48.144;14.118;2023-08-31T00:54:39;12.00;99.90
8332;DHT22;4203;48.144;14.118;2023-08-31T00:57:08;12.10;99.90
8332;DHT22;4203;48.144;14.118;2023-08-31T00:59:35;12.00;99.90
8332;DHT22;4203;48.144;14.118;2023-08-31T01:02:13;12.00;99.90
8332;DHT22;4203;48.144;14.118;2023-08-31T01:04:52;11.90;99.90
8332;DHT22;4203;48.144;14.118;2023-08-31T01:07:28;11.90;99.90
8332;DHT22;4203;48.144;14.118;2023-08-31T01:10:10;11.90;99.90
8332;DHT22;4203;48.144;14.118;2023-08-31T01:12:46;11.90;99.90
8332;DHT22;4203;48.144;14.118;2023-08-31T01:15:18;11.90;99.90
8332;DHT22;4203;48.144;14.118;2023-08-31T01:17:48;11.90;99.90
8332;DHT22;4203;48.144;14.118;2023-08-31T01:20:24;11.90;99.90
8332;DHT22;4203;48.144;14.118;2023-08-31T01:22:57;12.00;99.90
8332;DHT22;4203;48.144;14.118;2023-08-31T01:25:28;12.00;99.90
8332;DHT22;4203;48.144;14.118;2023-08-31T01:27:58;12.00;99.90
8332;DHT22;4203;48.144;14.118;2023-08-31T01:30:29;12.00;99.90
8332;DHT22;4203;48.144;14.118;2023-08-31T01:32:57;12.00;99.90
8332;DHT22;4203;48.144;14.118;2023-08-31T01:35:26;12.00;99.90
8332;DHT22;4203;48.144;14.118;2023-08-31T01:37:58;12.00;99.90
8332;DHT22;4203;48.144;14.118;2023-08-31T01:40:33;12.00;99.90
8332;DHT22;4203;48.144;14.118;2023-08-31T01:43:02;12.00;99.90
8332;DHT22;4203;48.144;14.118;2023-08-31T01:45:31;11.90;99.90
8332;DHT22;4203;48.144;14.118;2023-08-31T01:47:59;11.90;99.90
8332;DHT22;4203;48.144;14.118;2023-08-31T01:50:27;11.90;99.90
8332;DHT22;4203;48.144;14.118;2023-08-31T01:52:54;11.80;99.90
8332;DHT22;4203;48.144;14.118;2023-08-31T01:55:21;11.80;99.90
8332;DHT22;4203;48.144;14.118;2023-08-31T01:57:51;11.80;99.90
8332;DHT22;4203;48.144;14.118;2023-08-31T02:00:19;11.80;99.90
8332;DHT22;4203;48.144;14.118;2023-08-31T02:02:46;11.80;99.90
8332;DHT22;4203;48.144;14.118;2023-08-31T02:05:13;11.80;99.90
8332;DHT22;4203;48.144;14.118;2023-08-31T02:07:41;11.70;99.90
8332;DHT22;4203;48.144;14.118;2023-08-31T02:10:08;11.70;99.90
8332;DHT22;4203;48.144;14.118;2023-08-31T02:12:35;11.60;99.90
8332;DHT22;4203;48.144;14.118;2023-08-31T02:15:06;11.50;99.90
8332;DHT22;4203;48.144;14.118;2023-08-31T02:17:34;11.50;99.90
8332;DHT22;4203;48.144;14.118;2023-08-31T02:20:01;11.50;99.90
8332;DHT22;4203;48.144;14.118;2023-08-31T02:22:30;11.60;99.90
8332;DHT22;4203;48.144;14.118;2023-08-31T02:24:58;11.60;99.90
8332;DHT22;4203;48.144;14.118;2023-08-31T02:27:29;11.70;99.90
8332;DHT22;4203;48.144;14.118;2023-08-31T02:29:56;11.70;99.90
8332;DHT22;4203;48.144;14.118;2023-08-31T02:32:24;11.80;99.90
8332;DHT22;4203;48.144;14.118;2023-08-31T02:34:52;11.80;99.90
8332;DHT22;4203;48.144;14.118;2023-08-31T02:37:19;11.80;99.90
8332;DHT22;4203;48.144;14.118;2023-08-31T02:39:46;11.80;99.90
8332;DHT22;4203;48.144;14.118;2023-08-31T02:42:14;11.80;99.90
8332;DHT22;4203;48.144;14.118;2023-08-31T02:44:41;11.90;99.90
8332;DHT22;4203;48.144;14.118;2023-08-31T02:47:08;11.90;99.90
8332;DHT22;4203;48.144;14.118;2023-08-31T02:49:44;11.90;99.90
8332;DHT22;4203;48.144;14.118;2023-08-31T02:52:13;11.90;99.90
8332;DHT22;4203;48.144;14.118;2023-08-31T02:54:40;12.00;99.90
8332;DHT22;4203;48.144;14.118;2023-08-31T02:57:08;12.10;99.90
8332;DHT22;4203;48.144;14.118;2023-08-31T02:59:36;12.10;99.90
8332;DHT22;4203;48.144;14.118;2023-08-31T03:02:03;12.10;99.90
8332;DHT22;4203;48.144;14.118;2023-08-31T03:04:31;12.10;99.90
8332;DHT22;4203;48.144;14.118;2023-08-31T03:06:59;12.10;99.90
8332;DHT22;4203;48.144;14.118;2023-08-31T03:09:27;12.10;99.90
8332;DHT22;4203;48.144;14.118;2023-08-31T03:11:54;12.20;99.90
8332;DHT22;4203;48.144;14.118;2023-08-31T03:14:22;12.20;99.90
8332;DHT22;4203;48.144;14.118;2023-08-31T03:16:49;12.30;99.90
8332;DHT22;4203;48.144;14.118;2023-08-31T03:19:16;12.30;99.90
8332;DHT22;4203;48.144;14.118;2023-08-31T03:21:43;12.30;99.90
8332;DHT22;4203;48.144;14.118;2023-08-31T03:24:12;12.30;99.90
8332;DHT22;4203;48.144;14.118;2023-08-31T03:26:39;12.30;99.90
8332;DHT22;4203;48.144;14.118;2023-08-31T03:29:06;12.30;99.90
8332;DHT22;4203;48.144;14.118;2023-08-31T03:31:34;12.20;99.90
8332;DHT22;4203;48.144;14.118;2023-08-31T03:34:01;12.30;99.90
8332;DHT22;4203;48.144;14.118;2023-08-31T03:36:28;12.30;99.90
8332;DHT22;4203;48.144;14.118;2023-08-31T03:38:57;12.30;99.90
8332;DHT22;4203;48.144;14.118;2023-08-31T03:41:26;12.30;99.90
8332;DHT22;4203;48.144;14.118;2023-08-31T03:43:53;12.20;99.90
8332;DHT22;4203;48.144;14.118;2023-08-31T03:46:20;12.20;99.90
8332;DHT22;4203;48.144;14.118;2023-08-31T03:48:47;12.20;99.90
8332;DHT22;4203;48.144;14.118;2023-08-31T03:51:14;12.20;99.90
8332;DHT22;4203;48.144;14.118;2023-08-31T03:53:42;12.10;99.90
8332;DHT22;4203;48.144;14.118;2023-08-31T03:56:09;12.10;99.90
8332;DHT22;4203;48.144;14.118;2023-08-31T03:58:38;12.10;99.90
8332;DHT22;4203;48.144;14.118;2023-08-31T04:01:06;12.10;99.90
8332;DHT22;4203;48.144;14.118;2023-08-31T04:03:33;12.00;99.90
8332;DHT22;4203;48.144;14.118;2023-08-31T04:06:00;12.00;99.90
8332;DHT22;4203;48.144;14.118;2023-08-31T04:08:34;12.00;99.90
8332;DHT22;4203;48.144;14.118;2023-08-31T04:11:01;12.00;99.90
8332;DHT22;4203;48.144;14.118;2023-08-31T04:13:29;11.90;99.90
8332;DHT22;4203;48.144;14.118;2023-08-31T04:15:57;11.80;99.90
8332;DHT22;4203;48.144;14.118;2023-08-31T04:18:25;11.80;99.90
8332;DHT22;4203;48.144;14.118;2023-08-31T04:20:54;11.70;99.90
8332;DHT22;4203;48.144;14.118;2023-08-31T04:23:21;11.60;99.90
8332;DHT22;4203;48.144;14.118;2023-08-31T04:25:48;11.70;99.90
8332;DHT22;4203;48.144;14.118;2023-08-31T04:28:17;11.70;99.90
8332;DHT22;4203;48.144;14.118;2023-08-31T04:30:44;11.60;99.90
8332;DHT22;4203;48.144;14.118;2023-08-31T04:33:13;11.60;99.90
8332;DHT22;4203;48.144;14.118;2023-08-31T04:35:40;11.60;99.90
8332;DHT22;4203;48.144;14.118;2023-08-31T04:38:08;11.60;99.90
8332;DHT22;4203;48.144;14.118;2023-08-31T04:40:35;11.50;99.90
8332;DHT22;4203;48.144;14.118;2023-08-31T04:43:03;11.60;99.90
8332;DHT22;4203;48.144;14.118;2023-08-31T04:45:30;11.50;99.90
8332;DHT22;4203;48.144;14.118;2023-08-31T04:47:59;11.60;99.90
8332;DHT22;4203;48.144;14.118;2023-08-31T04:50:27;11.60;99.90
8332;DHT22;4203;48.144;14.118;2023-08-31T04:52:55;11.60;99.90
8332;DHT22;4203;48.144;14.118;2023-08-31T04:55:22;11.60;99.90
8332;DHT22;4203;48.144;14.118;2023-08-31T04:57:51;11.60;99.90
8332;DHT22;4203;48.144;14.118;2023-08-31T05:00:18;11.70;99.90
8332;DHT22;4203;48.144;14.118;2023-08-31T05:02:46;11.80;99.90
8332;DHT22;4203;48.144;14.118;2023-08-31T05:05:13;11.90;99.90
8332;DHT22;4203;48.144;14.118;2023-08-31T05:07:42;12.00;99.90
8332;DHT22;4203;48.144;14.118;2023-08-31T05:10:09;12.10;99.90
8332;DHT22;4203;48.144;14.118;2023-08-31T05:12:37;12.30;99.90
8332;DHT22;4203;48.144;14.118;2023-08-31T05:15:05;12.40;99.90
8332;DHT22;4203;48.144;14.118;2023-08-31T05:17:45;12.50;99.90
8332;DHT22;4203;48.144;14.118;2023-08-31T05:20:14;12.60;99.90
8332;DHT22;4203;48.144;14.118;2023-08-31T05:22:43;12.70;99.90
8332;DHT22;4203;48.144;14.118;2023-08-31T05:25:10;12.80;99.90
8332;DHT22;4203;48.144;14.118;2023-08-31T05:27:37;12.90;99.90
8332;DHT22;4203;48.144;14.118;2023-08-31T05:30:05;13.00;99.90
8332;DHT22;4203;48.144;14.118;2023-08-31T05:32:32;13.10;99.90
8332;DHT22;4203;48.144;14.118;2023-08-31T05:35:00;13.10;99.90
8332;DHT22;4203;48.144;14.118;2023-08-31T05:37:32;13.20;99.90
8332;DHT22;4203;48.144;14.118;2023-08-31T05:40:02;13.20;99.90
8332;DHT22;4203;48.144;14.118;2023-08-31T05:42:35;13.30;99.90
8332;DHT22;4203;48.144;14.118;2023-08-31T05:45:03;13.40;99.90
8332;DHT22;4203;48.144;14.118;2023-08-31T05:47:30;13.50;99.90
8332;DHT22;4203;48.144;14.118;2023-08-31T05:49:57;13.60;99.90
8332;DHT22;4203;48.144;14.118;2023-08-31T05:52:24;13.70;99.90
8332;DHT22;4203;48.144;14.118;2023-08-31T05:54:51;13.80;99.90
8332;DHT22;4203;48.144;14.118;2023-08-31T05:57:20;14.00;99.90
8332;DHT22;4203;48.144;14.118;2023-08-31T05:59:47;14.10;99.90
8332;DHT22;4203;48.144;14.118;2023-08-31T06:02:15;14.20;99.90
8332;DHT22;4203;48.144;14.118;2023-08-31T06:04:42;14.20;99.90
8332;DHT22;4203;48.144;14.118;2023-08-31T06:07:10;14.30;99.90
8332;DHT22;4203;48.144;14.118;2023-08-31T06:09:38;14.30;99.90
8332;DHT22;4203;48.144;14.118;2023-08-31T06:12:06;14.40;99.90
8332;DHT22;4203;48.144;14.118;2023-08-31T06:14:35;14.50;99.90
8332;DHT22;4203;48.144;14.118;2023-08-31T06:17:02;14.60;99.90
8332;DHT22;4203;48.144;14.118;2023-08-31T06:19:29;14.70;99.90
8332;DHT22;4203;48.144;14.118;2023-08-31T06:21:57;14.80;99.90
8332;DHT22;4203;48.144;14.118;2023-08-31T06:24:24;14.70;99.90
8332;DHT22;4203;48.144;14.118;2023-08-31T06:26:51;14.70;99.90
8332;DHT22;4203;48.144;14.118;2023-08-31T06:29:20;14.70;99.90
8332;DHT22;4203;48.144;14.118;2023-08-31T06:31:49;14.80;99.90
8332;DHT22;4203;48.144;14.118;2023-08-31T06:34:16;14.90;99.90
8332;DHT22;4203;48.144;14.118;2023-08-31T06:36:43;15.10;99.90
8332;DHT22;4203;48.144;14.118;2023-08-31T06:39:12;15.30;99.90
8332;DHT22;4203;48.144;14.118;2023-08-31T06:41:39;15.40;99.90
8332;DHT22;4203;48.144;14.118;2023-08-31T06:44:06;15.50;99.90
8332;DHT22;4203;48.144;14.118;2023-08-31T06:46:33;15.50;99.90
8332;DHT22;4203;48.144;14.118;2023-08-31T06:49:11;15.60;99.90
8332;DHT22;4203;48.144;14.118;2023-08-31T06:51:38;15.70;99.90
8332;DHT22;4203;48.144;14.118;2023-08-31T06:54:05;15.70;99.90
8332;DHT22;4203;48.144;14.118;2023-08-31T06:56:33;15.70;99.90
8332;DHT22;4203;48.144;14.118;2023-08-31T06:59:01;15.70;99.90
8332;DHT22;4203;48.144;14.118;2023-08-31T07:01:29;15.70;99.90
8332;DHT22;4203;48.144;14.118;2023-08-31T07:03:58;15.70;99.90
8332;DHT22;4203;48.144;14.118;2023-08-31T07:06:27;15.80;99.90
8332;DHT22;4203;48.144;14.118;2023-08-31T07:08:55;15.90;99.90
8332;DHT22;4203;48.144;14.118;2023-08-31T07:11:22;15.90;99.90
8332;DHT22;4203;48.144;14.118;2023-08-31T07:13:49;15.90;99.90
8332;DHT22;4203;48.144;14.118;2023-08-31T07:16:17;15.90;99.90
8332;DHT22;4203;48.144;14.118;2023-08-31T07:18:44;15.80;99.90
8332;DHT22;4203;48.144;14.118;2023-08-31T07:21:11;15.90;99.90
8332;DHT22;4203;48.144;14.118;2023-08-31T07:23:40;16.30;99.90
8332;DHT22;4203;48.144;14.118;2023-08-31T07:26:07;16.70;99.90
8332;DHT22;4203;48.144;14.118;2023-08-31T07:28:34;17.00;99.90
8332;DHT22;4203;48.144;14.118;2023-08-31T07:31:02;17.30;99.90
8332;DHT22;4203;48.144;14.118;2023-08-31T07:33:30;17.60;99.90
8332;DHT22;4203;48.144;14.118;2023-08-31T07:35:58;17.70;99.90
8332;DHT22;4203;48.144;14.118;2023-08-31T07:38:27;18.00;99.90
8332;DHT22;4203;48.144;14.118;2023-08-31T07:40:56;18.30;99.90
8332;DHT22;4203;48.144;14.118;2023-08-31T07:43:23;18.50;99.90
8332;DHT22;4203;48.144;14.118;2023-08-31T07:45:50;18.70;99.90
8332;DHT22;4203;48.144;14.118;2023-08-31T07:48:17;18.70;99.90
8332;DHT22;4203;48.144;14.118;2023-08-31T07:50:45;18.90;99.90
8332;DHT22;4203;48.144;14.118;2023-08-31T07:53:12;19.00;99.90
8332;DHT22;4203;48.144;14.118;2023-08-31T07:55:39;19.20;99.90
8332;DHT22;4203;48.144;14.118;2023-08-31T07:58:08;19.30;99.90
8332;DHT22;4203;48.144;14.118;2023-08-31T08:00:35;19.30;99.90
8332;DHT22;4203;48.144;14.118;2023-08-31T08:03:03;19.30;99.90
8332;DHT22;4203;48.144;14.118;2023-08-31T08:05:30;19.50;99.90
8332;DHT22;4203;48.144;14.118;2023-08-31T08:07:58;19.70;99.90
8332;DHT22;4203;48.144;14.118;2023-08-31T08:10:25;19.80;99.90
8332;DHT22;4203;48.144;14.118;2023-08-31T08:12:52;19.90;99.90
8332;DHT22;4203;48.144;14.118;2023-08-31T08:15:23;20.10;99.90
8332;DHT22;4203;48.144;14.118;2023-08-31T08:17:50;20.40;99.90
8332;DHT22;4203;48.144;14.118;2023-08-31T08:20:19;20.60;99.90
8332;DHT22;4203;48.144;14.118;2023-08-31T08:22:46;20.90;99.90
8332;DHT22;4203;48.144;14.118;2023-08-31T08:25:15;21.10;99.90
8332;DHT22;4203;48.144;14.118;2023-08-31T08:27:42;21.20;99.90
8332;DHT22;4203;48.144;14.118;2023-08-31T08:30:09;21.50;99.90
8332;DHT22;4203;48.144;14.118;2023-08-31T08:32:38;21.50;99.90
8332;DHT22;4203;48.144;14.118;2023-08-31T08:35:06;21.30;99.90
8332;DHT22;4203;48.144;14.118;2023-08-31T08:37:33;21.40;99.90
8332;DHT22;4203;48.144;14.118;2023-08-31T08:40:01;21.50;99.90
8332;DHT22;4203;48.144;14.118;2023-08-31T08:42:30;21.60;99.90
8332;DHT22;4203;48.144;14.118;2023-08-31T08:44:58;21.60;99.90
8332;DHT22;4203;48.144;14.118;2023-08-31T08:47:26;21.70;99.90
8332;DHT22;4203;48.144;14.118;2023-08-31T08:49:56;21.20;99.90
8332;DHT22;4203;48.144;14.118;2023-08-31T08:52:24;20.40;99.90
8332;DHT22;4203;48.144;14.118;2023-08-31T08:54:53;19.90;99.90
8332;DHT22;4203;48.144;14.118;2023-08-31T08:57:20;19.20;99.90
8332;DHT22;4203;48.144;14.118;2023-08-31T08:59:47;18.80;99.90
8332;DHT22;4203;48.144;14.118;2023-08-31T09:02:14;18.60;99.90
8332;DHT22;4203;48.144;14.118;2023-08-31T09:04:42;18.40;99.90
8332;DHT22;4203;48.144;14.118;2023-08-31T09:07:10;18.50;99.90
8332;DHT22;4203;48.144;14.118;2023-08-31T09:09:48;18.60;99.90
8332;DHT22;4203;48.144;14.118;2023-08-31T09:12:17;18.60;99.90
8332;DHT22;4203;48.144;14.118;2023-08-31T09:14:56;18.70;99.90
8332;DHT22;4203;48.144;14.118;2023-08-31T09:17:23;18.70;99.90
8332;DHT22;4203;48.144;14.118;2023-08-31T09:19:59;18.90;99.90
8332;DHT22;4203;48.144;14.118;2023-08-31T09:22:31;19.00;99.90
8332;DHT22;4203;48.144;14.118;2023-08-31T09:24:58;19.30;99.90
8332;DHT22;4203;48.144;14.118;2023-08-31T09:27:26;19.30;99.90
8332;DHT22;4203;48.144;14.118;2023-08-31T09:29:54;19.40;99.90
8332;DHT22;4203;48.144;14.118;2023-08-31T09:32:22;19.40;99.90
8332;DHT22;4203;48.144;14.118;2023-08-31T09:34:49;19.40;99.90
8332;DHT22;4203;48.144;14.118;2023-08-31T09:37:16;19.40;99.90
8332;DHT22;4203;48.144;14.118;2023-08-31T09:39:45;19.30;99.90
8332;DHT22;4203;48.144;14.118;2023-08-31T09:42:12;19.30;99.90
8332;DHT22;4203;48.144;14.118;2023-08-31T09:44:43;19.30;99.90
8332;DHT22;4203;48.144;14.118;2023-08-31T09:47:13;19.40;99.90
8332;DHT22;4203;48.144;14.118;2023-08-31T09:49:42;19.80;99.90
8332;DHT22;4203;48.144;14.118;2023-08-31T09:52:10;20.30;99.90
8332;DHT22;4203;48.144;14.118;2023-08-31T09:54:39;20.60;99.90
8332;DHT22;4203;48.144;14.118;2023-08-31T09:57:08;20.80;99.90
8332;DHT22;4203;48.144;14.118;2023-08-31T09:59:38;21.10;99.90
8332;DHT22;4203;48.144;14.118;2023-08-31T10:02:07;21.30;99.90
8332;DHT22;4203;48.144;14.118;2023-08-31T10:04:35;21.00;99.90
8332;DHT22;4203;48.144;14.118;2023-08-31T10:07:04;20.90;99.90
8332;DHT22;4203;48.144;14.118;2023-08-31T10:09:32;20.70;99.90
8332;DHT22;4203;48.144;14.118;2023-08-31T10:12:00;20.70;99.90
8332;DHT22;4203;48.144;14.118;2023-08-31T10:14:31;20.70;99.90
8332;DHT22;4203;48.144;14.118;2023-08-31T10:16:58;20.60;99.90
8332;DHT22;4203;48.144;14.118;2023-08-31T10:19:25;20.60;99.90
8332;DHT22;4203;48.144;14.118;2023-08-31T10:21:53;20.60;99.90
8332;DHT22;4203;48.144;14.118;2023-08-31T10:24:56;20.60;99.90
8332;DHT22;4203;48.144;14.118;2023-08-31T10:27:23;20.60;99.90
8332;DHT22;4203;48.144;14.118;2023-08-31T10:29:51;20.40;99.90
8332;DHT22;4203;48.144;14.118;2023-08-31T10:32:19;20.20;99.90
8332;DHT22;4203;48.144;14.118;2023-08-31T10:35:05;20.10;99.90
8332;DHT22;4203;48.144;14.118;2023-08-31T10:37:33;20.00;99.90
8332;DHT22;4203;48.144;14.118;2023-08-31T10:40:07;19.90;99.90
8332;DHT22;4203;48.144;14.118;2023-08-31T10:42:48;19.70;99.90
8332;DHT22;4203;48.144;14.118;2023-08-31T10:45:45;19.60;99.90
8332;DHT22;4203;48.144;14.118;2023-08-31T10:48:12;19.50;99.90
8332;DHT22;4203;48.144;14.118;2023-08-31T10:50:41;19.40;99.90
8332;DHT22;4203;48.144;14.118;2023-08-31T10:53:09;19.50;99.90
8332;DHT22;4203;48.144;14.118;2023-08-31T10:55:50;19.70;99.90
8332;DHT22;4203;48.144;14.118;2023-08-31T10:58:17;19.70;99.90
8332;DHT22;4203;48.144;14.118;2023-08-31T11:00:51;19.60;99.90
8332;DHT22;4203;48.144;14.118;2023-08-31T11:03:19;19.50;99.90
8332;DHT22;4203;48.144;14.118;2023-08-31T11:05:52;19.50;99.90
8332;DHT22;4203;48.144;14.118;2023-08-31T11:08:22;19.40;99.90
8332;DHT22;4203;48.144;14.118;2023-08-31T11:10:52;19.20;99.90
8332;DHT22;4203;48.144;14.118;2023-08-31T11:13:19;19.00;99.90
8332;DHT22;4203;48.144;14.118;2023-08-31T11:15:48;19.00;99.90
8332;DHT22;4203;48.144;14.118;2023-08-31T11:18:16;19.00;99.90
8332;DHT22;4203;48.144;14.118;2023-08-31T11:20:47;19.10;99.90
8332;DHT22;4203;48.144;14.118;2023-08-31T11:23:15;19.30;99.90
8332;DHT22;4203;48.144;14.118;2023-08-31T11:25:42;19.70;99.90
8332;DHT22;4203;48.144;14.118;2023-08-31T11:28:09;20.40;99.90
8332;DHT22;4203;48.144;14.118;2023-08-31T11:30:36;21.60;99.90
8332;DHT22;4203;48.144;14.118;2023-08-31T11:33:07;22.10;99.90
8332;DHT22;4203;48.144;14.118;2023-08-31T11:35:38;22.30;99.90
8332;DHT22;4203;48.144;14.118;2023-08-31T11:38:06;22.40;99.90
8332;DHT22;4203;48.144;14.118;2023-08-31T11:40:34;22.90;99.90
8332;DHT22;4203;48.144;14.118;2023-08-31T11:43:03;23.50;99.90
8332;DHT22;4203;48.144;14.118;2023-08-31T11:45:32;23.80;99.90
8332;DHT22;4203;48.144;14.118;2023-08-31T11:48:00;23.90;99.90
8332;DHT22;4203;48.144;14.118;2023-08-31T11:50:30;24.20;99.90
8332;DHT22;4203;48.144;14.118;2023-08-31T11:52:57;24.30;99.90
8332;DHT22;4203;48.144;14.118;2023-08-31T11:55:24;24.70;99.90
8332;DHT22;4203;48.144;14.118;2023-08-31T11:57:54;24.80;99.90
8332;DHT22;4203;48.144;14.118;2023-08-31T12:00:22;24.40;99.90
8332;DHT22;4203;48.144;14.118;2023-08-31T12:02:59;24.20;99.90
8332;DHT22;4203;48.144;14.118;2023-08-31T12:05:26;24.10;99.90
8332;DHT22;4203;48.144;14.118;2023-08-31T12:07:56;23.80;99.90
8332;DHT22;4203;48.144;14.118;2023-08-31T12:10:24;23.60;99.90
8332;DHT22;4203;48.144;14.118;2023-08-31T12:12:51;23.80;99.90
8332;DHT22;4203;48.144;14.118;2023-08-31T12:15:21;24.00;99.90
8332;DHT22;4203;48.144;14.118;2023-08-31T12:17:49;24.20;99.90
8332;DHT22;4203;48.144;14.118;2023-08-31T12:20:24;24.00;99.90
8332;DHT22;4203;48.144;14.118;2023-08-31T12:22:51;24.20;99.90
8332;DHT22;4203;48.144;14.118;2023-08-31T12:25:21;24.80;99.90
8332;DHT22;4203;48.144;14.118;2023-08-31T12:27:49;24.50;99.90
8332;DHT22;4203;48.144;14.118;2023-08-31T12:30:16;25.00;99.90
8332;DHT22;4203;48.144;14.118;2023-08-31T12:32:43;25.50;99.90
8332;DHT22;4203;48.144;14.118;2023-08-31T12:35:11;25.60;99.90
8332;DHT22;4203;48.144;14.118;2023-08-31T12:37:40;26.00;99.90
8332;DHT22;4203;48.144;14.118;2023-08-31T12:40:08;26.60;99.90
8332;DHT22;4203;48.144;14.118;2023-08-31T12:42:37;26.70;99.90
8332;DHT22;4203;48.144;14.118;2023-08-31T12:45:04;27.00;99.90
8332;DHT22;4203;48.144;14.118;2023-08-31T12:47:32;27.30;99.90
8332;DHT22;4203;48.144;14.118;2023-08-31T12:49:59;27.00;99.90
8332;DHT22;4203;48.144;14.118;2023-08-31T12:52:28;26.30;99.90
8332;DHT22;4203;48.144;14.118;2023-08-31T12:54:55;25.90;99.90
8332;DHT22;4203;48.144;14.118;2023-08-31T12:57:22;25.30;99.90
8332;DHT22;4203;48.144;14.118;2023-08-31T12:59:50;25.40;99.90
8332;DHT22;4203;48.144;14.118;2023-08-31T13:02:18;25.60;99.90
8332;DHT22;4203;48.144;14.118;2023-08-31T13:04:45;25.80;99.90
8332;DHT22;4203;48.144;14.118;2023-08-31T13:07:12;26.40;99.90
8332;DHT22;4203;48.144;14.118;2023-08-31T13:09:39;26.50;99.90
8332;DHT22;4203;48.144;14.118;2023-08-31T13:12:07;26.30;99.90
8332;DHT22;4203;48.144;14.118;2023-08-31T13:14:34;26.30;99.90
8332;DHT22;4203;48.144;14.118;2023-08-31T13:17:03;26.10;99.90
8332;DHT22;4203;48.144;14.118;2023-08-31T13:19:31;26.30;99.90
8332;DHT22;4203;48.144;14.118;2023-08-31T13:21:58;26.20;99.90
8332;DHT22;4203;48.144;14.118;2023-08-31T13:24:26;26.20;99.90
8332;DHT22;4203;48.144;14.118;2023-08-31T13:26:53;26.30;99.90
8332;DHT22;4203;48.144;14.118;2023-08-31T13:29:20;26.50;99.90
8332;DHT22;4203;48.144;14.118;2023-08-31T13:31:47;26.20;99.90
8332;DHT22;4203;48.144;14.118;2023-08-31T13:34:16;25.60;99.90
8332;DHT22;4203;48.144;14.118;2023-08-31T13:36:44;25.60;99.90
8332;DHT22;4203;48.144;14.118;2023-08-31T13:39:12;25.70;99.90
8332;DHT22;4203;48.144;14.118;2023-08-31T13:41:39;25.60;99.90
8332;DHT22;4203;48.144;14.118;2023-08-31T13:44:06;25.30;99.90
8332;DHT22;4203;48.144;14.118;2023-08-31T13:46:34;25.20;99.90
8332;DHT22;4203;48.144;14.118;2023-08-31T13:49:01;25.10;99.90
8332;DHT22;4203;48.144;14.118;2023-08-31T13:51:30;25.00;99.90
8332;DHT22;4203;48.144;14.118;2023-08-31T13:53:57;24.60;99.90
8332;DHT22;4203;48.144;14.118;2023-08-31T13:56:24;24.10;99.90
8332;DHT22;4203;48.144;14.118;2023-08-31T13:58:51;23.60;99.90
8332;DHT22;4203;48.144;14.118;2023-08-31T14:01:19;23.40;99.90
8332;DHT22;4203;48.144;14.118;2023-08-31T14:03:46;23.30;99.90
8332;DHT22;4203;48.144;14.118;2023-08-31T14:06:13;23.50;99.90
8332;DHT22;4203;48.144;14.118;2023-08-31T14:08:42;23.60;99.90
8332;DHT22;4203;48.144;14.118;2023-08-31T14:11:09;23.70;99.90
8332;DHT22;4203;48.144;14.118;2023-08-31T14:13:36;23.50;99.90
8332;DHT22;4203;48.144;14.118;2023-08-31T14:16:03;23.50;99.90
8332;DHT22;4203;48.144;14.118;2023-08-31T14:18:31;23.40;99.90
8332;DHT22;4203;48.144;14.118;2023-08-31T14:20:59;23.60;99.90
8332;DHT22;4203;48.144;14.118;2023-08-31T14:23:26;23.90;99.90
8332;DHT22;4203;48.144;14.118;2023-08-31T14:26:00;24.30;99.90
8332;DHT22;4203;48.144;14.118;2023-08-31T14:28:28;24.40;99.90
8332;DHT22;4203;48.144;14.118;2023-08-31T14:30:56;24.50;99.90
8332;DHT22;4203;48.144;14.118;2023-08-31T14:33:23;24.30;99.90
8332;DHT22;4203;48.144;14.118;2023-08-31T14:35:50;24.00;99.90
8332;DHT22;4203;48.144;14.118;2023-08-31T14:38:21;23.50;99.90
8332;DHT22;4203;48.144;14.118;2023-08-31T14:40:48;23.00;99.90
8332;DHT22;4203;48.144;14.118;2023-08-31T14:43:17;22.50;99.90
8332;DHT22;4203;48.144;14.118;2023-08-31T14:45:44;22.30;99.90
8332;DHT22;4203;48.144;14.118;2023-08-31T14:48:11;22.10;99.90
8332;DHT22;4203;48.144;14.118;2023-08-31T14:50:42;21.90;99.90
8332;DHT22;4203;48.144;14.118;2023-08-31T14:53:10;21.80;99.90
8332;DHT22;4203;48.144;14.118;2023-08-31T14:55:37;21.90;99.90
8332;DHT22;4203;48.144;14.118;2023-08-31T14:58:05;21.90;99.90
8332;DHT22;4203;48.144;14.118;2023-08-31T15:00:33;22.00;99.90
8332;DHT22;4203;48.144;14.118;2023-08-31T15:03:00;22.00;99.90
8332;DHT22;4203;48.144;14.118;2023-08-31T15:05:29;21.80;99.90
8332;DHT22;4203;48.144;14.118;2023-08-31T15:07:57;21.70;99.90
8332;DHT22;4203;48.144;14.118;2023-08-31T15:10:24;21.50;99.90
8332;DHT22;4203;48.144;14.118;2023-08-31T15:12:51;21.30;99.90
8332;DHT22;4203;48.144;14.118;2023-08-31T15:15:23;21.30;99.90
8332;DHT22;4203;48.144;14.118;2023-08-31T15:17:52;21.30;99.90
8332;DHT22;4203;48.144;14.118;2023-08-31T15:20:19;21.10;99.90
8332;DHT22;4203;48.144;14.118;2023-08-31T15:22:47;21.00;99.90
8332;DHT22;4203;48.144;14.118;2023-08-31T15:25:14;21.00;99.90
8332;DHT22;4203;48.144;14.118;2023-08-31T15:27:41;20.80;99.90
8332;DHT22;4203;48.144;14.118;2023-08-31T15:30:10;20.70;99.90
8332;DHT22;4203;48.144;14.118;2023-08-31T15:32:37;20.60;99.90
8332;DHT22;4203;48.144;14.118;2023-08-31T15:35:07;20.40;99.90
8332;DHT22;4203;48.144;14.118;2023-08-31T15:37:34;20.30;99.90
8332;DHT22;4203;48.144;14.118;2023-08-31T15:40:01;20.30;99.90
8332;DHT22;4203;48.144;14.118;2023-08-31T15:42:28;20.30;99.90
8332;DHT22;4203;48.144;14.118;2023-08-31T15:44:56;20.30;99.90
8332;DHT22;4203;48.144;14.118;2023-08-31T15:47:23;20.40;99.90
8332;DHT22;4203;48.144;14.118;2023-08-31T15:49:50;20.40;99.90
8332;DHT22;4203;48.144;14.118;2023-08-31T15:52:19;20.40;99.90